createdAt,value
2023-02-03T00:01:25.502Z,2.66
2023-02-03T00:04:30.715Z,2.64
2023-02-03T00:07:38.815Z,2.68
2023-02-03T00:10:44.739Z,2.78
2023-02-03T00:13:50.168Z,2.78
2023-02-03T00:16:55.378Z,2.84
2023-02-03T00:20:00.631Z,2.88
2023-02-03T00:23:09.051Z,2.61
2023-02-03T00:26:17.090Z,2.55
2023-02-03T00:29:26.201Z,2.81
2023-02-03T00:32:31.921Z,2.55
2023-02-03T00:35:40.589Z,2.24
2023-02-03T00:38:45.669Z,2.49
2023-02-03T00:41:50.908Z,2.46
2023-02-03T00:44:56.284Z,2.48
2023-02-03T00:48:01.555Z,2.44
2023-02-03T00:51:06.766Z,2.40
2023-02-03T00:54:13.828Z,2.17
2023-02-03T00:57:19.907Z,2.51
2023-02-03T01:00:25.527Z,2.37
2023-02-03T01:03:31.017Z,2.22
2023-02-03T01:06:36.848Z,2.19
2023-02-03T01:09:42.079Z,2.27
2023-02-03T01:12:49.645Z,1.90
2023-02-03T01:15:54.831Z,1.98
2023-02-03T01:18:59.944Z,1.80
2023-02-03T01:22:06.997Z,1.44
2023-02-03T01:25:12.769Z,1.72
2023-02-03T01:28:18.100Z,2.02
2023-02-03T01:31:31.309Z,1.94
2023-02-03T01:34:38.012Z,1.62
2023-02-03T01:37:44.664Z,1.89
2023-02-03T01:40:50.032Z,1.80
2023-02-03T01:43:58.792Z,1.75
2023-02-03T01:47:20.194Z,1.56
2023-02-03T01:50:35.180Z,1.61
2023-02-03T01:53:41.588Z,1.33
2023-02-03T01:56:52.689Z,1.62
2023-02-03T02:00:00.868Z,1.84
2023-02-03T02:03:08.743Z,1.56
2023-02-03T02:06:15.327Z,1.64
2023-02-03T02:09:20.637Z,1.71
2023-02-03T02:12:27.028Z,1.63
2023-02-03T02:15:46.077Z,1.41
2023-02-03T02:19:36.064Z,1.40
2023-02-03T02:23:25.019Z,1.52
2023-02-03T02:27:24.430Z,1.55
2023-02-03T02:30:49.947Z,1.55
2023-02-03T02:34:20.819Z,1.26
2023-02-03T02:37:29.969Z,1.02
2023-02-03T02:41:02.741Z,1.14
2023-02-03T02:44:21.401Z,1.18
2023-02-03T02:47:45.136Z,1.28
2023-02-03T02:50:54.970Z,1.09
2023-02-03T02:54:21.031Z,0.74
2023-02-03T02:57:29.140Z,1.13
2023-02-03T03:00:53.672Z,1.09
2023-02-03T03:04:04.777Z,1.28
2023-02-03T03:07:42.803Z,1.34
2023-02-03T03:10:48.853Z,1.26
2023-02-03T03:14:13.374Z,1.18
2023-02-03T03:17:27.029Z,1.33
2023-02-03T03:20:51.236Z,1.43
2023-02-03T03:24:01.930Z,1.52
2023-02-03T03:27:34.353Z,1.43
2023-02-03T03:30:40.201Z,1.56
2023-02-03T03:34:04.450Z,1.63
2023-02-03T03:37:32.698Z,1.64
2023-02-03T03:40:58.517Z,1.61
2023-02-03T03:44:10.101Z,1.43
2023-02-03T03:47:38.229Z,1.49
2023-02-03T03:50:52.252Z,1.50
2023-02-03T03:54:19.510Z,1.52
2023-02-03T03:57:36.087Z,1.41
2023-02-03T04:01:00.947Z,1.37
2023-02-03T04:04:10.771Z,1.32
2023-02-03T04:07:35.247Z,1.27
2023-02-03T04:10:42.665Z,1.46
2023-02-03T04:14:06.592Z,1.35
2023-02-03T04:17:11.897Z,1.27
2023-02-03T04:20:36.114Z,1.33
2023-02-03T04:23:41.448Z,1.21
2023-02-03T04:27:05.540Z,1.12
2023-02-03T04:30:11.565Z,1.14
2023-02-03T04:33:35.453Z,1.02
2023-02-03T04:36:40.847Z,0.92
2023-02-03T04:40:04.792Z,0.86
2023-02-03T04:43:09.806Z,0.89
2023-02-03T04:46:33.391Z,0.59
2023-02-03T04:49:38.645Z,0.99
2023-02-03T04:53:02.552Z,1.14
2023-02-03T04:56:08.006Z,1.33
2023-02-03T04:59:31.968Z,1.36
2023-02-03T05:02:37.237Z,1.55
2023-02-03T05:06:01.644Z,1.56
2023-02-03T05:09:07.491Z,1.27
2023-02-03T05:12:32.312Z,1.29
2023-02-03T05:15:37.786Z,1.29
2023-02-03T05:19:01.655Z,1.45
2023-02-03T05:22:06.996Z,1.54
2023-02-03T05:25:31.391Z,1.43
2023-02-03T05:28:37.080Z,1.50
2023-02-03T05:32:00.703Z,1.44
2023-02-03T05:35:06.091Z,1.40
2023-02-03T05:38:29.748Z,1.22
2023-02-03T05:41:53.757Z,1.29
2023-02-03T05:45:18.999Z,1.13
2023-02-03T05:48:25.024Z,1.04
2023-02-03T05:51:30.770Z,1.03
2023-02-03T05:54:36.082Z,0.98
2023-02-03T05:57:42.315Z,0.70
2023-02-03T06:00:47.627Z,0.78
2023-02-03T06:03:53.040Z,0.57
2023-02-03T06:06:58.331Z,0.64
2023-02-03T06:10:03.914Z,0.73
2023-02-03T06:13:13.768Z,0.69
2023-02-03T06:16:19.307Z,0.57
2023-02-03T06:19:24.709Z,0.57
2023-02-03T06:22:30.269Z,0.40
2023-02-03T06:25:36.152Z,0.41
2023-02-03T06:28:41.902Z,0.59
2023-02-03T06:31:47.909Z,0.44
2023-02-03T06:34:53.537Z,0.29
2023-02-03T06:37:59.257Z,0.22
2023-02-03T06:41:04.745Z,0.19
2023-02-03T06:44:10.386Z,0.12
2023-02-03T06:47:16.068Z,0.15
2023-02-03T06:50:21.133Z,0.16
2023-02-03T06:53:26.403Z,0.26
2023-02-03T06:56:32.121Z,0.20
2023-02-03T06:59:37.432Z,0.23
2023-02-03T07:02:43.205Z,-0.32
2023-02-03T07:05:48.776Z,-0.31
2023-02-03T07:08:54.257Z,-0.74
2023-02-03T07:11:59.836Z,-0.75
2023-02-03T07:15:05.968Z,-0.53
2023-02-03T07:18:13.103Z,-0.41
2023-02-03T07:21:20.757Z,-0.53
2023-02-03T07:24:26.194Z,-0.26
2023-02-03T07:27:31.725Z,-0.75
2023-02-03T07:30:37.330Z,-0.59
2023-02-03T07:33:42.523Z,-0.39
2023-02-03T07:36:47.730Z,-0.40
2023-02-03T07:39:53.214Z,-0.24
2023-02-03T07:43:00.132Z,-0.32
2023-02-03T07:46:05.759Z,0.03
2023-02-03T07:49:12.319Z,-0.12
2023-02-03T07:52:17.585Z,0.20
2023-02-03T07:55:23.349Z,0.04
2023-02-03T07:58:29.376Z,0.36
2023-02-03T08:01:34.941Z,0.41
2023-02-03T08:04:40.528Z,0.52
2023-02-03T08:07:46.540Z,0.44
2023-02-03T08:10:51.449Z,0.22
2023-02-03T08:13:57.005Z,0.33
2023-02-03T08:17:02.739Z,0.28
2023-02-03T08:20:10.024Z,0.22
2023-02-03T08:23:16.514Z,0.10
2023-02-03T08:26:21.769Z,0.12
2023-02-03T08:29:27.173Z,0.51
2023-02-03T08:32:33.733Z,0.11
2023-02-03T08:35:40.412Z,0.36
2023-02-03T08:38:46.079Z,0.70
2023-02-03T08:41:51.563Z,0.97
2023-02-03T08:44:57.367Z,1.36
2023-02-03T08:48:03.044Z,1.29
2023-02-03T08:51:13.713Z,1.00
2023-02-03T08:54:20.535Z,1.26
2023-02-03T08:57:26.225Z,1.05
2023-02-03T09:00:31.419Z,0.89
2023-02-03T09:03:37.459Z,0.95
2023-02-03T09:06:42.916Z,0.69
2023-02-03T09:09:48.419Z,1.09
2023-02-03T09:12:54.190Z,0.65
2023-02-03T09:16:01.338Z,0.98
2023-02-03T09:19:07.371Z,1.25
2023-02-03T09:22:14.016Z,1.40
2023-02-03T09:25:19.554Z,1.65
2023-02-03T09:28:25.286Z,2.03
2023-02-03T09:31:31.113Z,2.17
2023-02-03T09:34:38.283Z,2.05
2023-02-03T09:37:43.216Z,1.68
2023-02-03T09:41:20.799Z,1.82
2023-02-03T09:44:47.709Z,1.96
2023-02-03T09:47:55.819Z,1.88
2023-02-03T09:51:02.278Z,1.97
2023-02-03T09:54:43.778Z,2.19
2023-02-03T09:57:57.225Z,2.15
2023-02-03T10:01:13.767Z,2.72
2023-02-03T10:04:34.442Z,2.88
2023-02-03T10:07:46.132Z,2.59
2023-02-03T10:11:10.160Z,2.75
2023-02-03T10:14:50.916Z,3.18
2023-02-03T10:18:14.149Z,3.27
2023-02-03T10:21:37.185Z,3.45
2023-02-03T10:25:08.473Z,3.16
2023-02-03T10:28:18.983Z,3.13
2023-02-03T10:31:27.956Z,3.19
2023-02-03T10:34:33.348Z,3.54
2023-02-03T10:37:45.888Z,3.18
2023-02-03T10:40:51.748Z,3.50
2023-02-03T10:44:02.810Z,3.78
2023-02-03T10:47:35.046Z,3.76
2023-02-03T10:50:48.503Z,4.08
2023-02-03T10:53:54.249Z,3.73
2023-02-03T10:57:17.082Z,4.15
2023-02-03T11:00:31.943Z,4.27
2023-02-03T11:03:39.026Z,4.38
2023-02-03T11:06:56.573Z,4.22
2023-02-03T11:10:01.923Z,4.25
2023-02-03T11:13:24.025Z,4.26
2023-02-03T11:16:31.768Z,4.34
2023-02-03T11:19:39.470Z,4.44
2023-02-03T11:22:45.988Z,4.43
2023-02-03T11:25:52.585Z,4.56
2023-02-03T11:29:02.671Z,4.43
2023-02-03T11:32:17.452Z,4.62
2023-02-03T11:35:26.301Z,4.76
2023-02-03T11:38:37.120Z,4.70
2023-02-03T11:41:43.191Z,4.89
2023-02-03T11:44:48.907Z,5.01
2023-02-03T11:48:18.192Z,5.00
2023-02-03T11:51:56.105Z,5.10
2023-02-03T11:55:04.441Z,5.17
2023-02-03T11:58:53.991Z,5.35
2023-02-03T12:02:19.589Z,5.68
2023-02-03T12:05:37.149Z,5.78
2023-02-03T12:08:57.978Z,5.90
2023-02-03T12:12:24.700Z,5.84
2023-02-03T12:15:50.438Z,5.99
2023-02-03T12:19:30.311Z,6.06
2023-02-03T12:23:06.313Z,6.36
2023-02-03T12:26:35.190Z,6.59
2023-02-03T12:29:47.637Z,6.61
2023-02-03T12:32:59.586Z,6.56
2023-02-03T12:36:36.626Z,6.80
2023-02-03T12:40:01.380Z,6.82
2023-02-03T12:43:39.954Z,6.98
2023-02-03T12:46:53.347Z,7.06
2023-02-03T12:50:15.388Z,7.23
2023-02-03T12:53:41.909Z,7.31
2023-02-03T12:56:53.156Z,7.45
2023-02-03T13:00:21.065Z,7.35
2023-02-03T13:03:29.360Z,7.44
2023-02-03T13:06:55.293Z,7.68
2023-02-03T13:10:14.912Z,7.75
2023-02-03T13:13:35.848Z,7.82
2023-02-03T13:16:46.298Z,7.77
2023-02-03T13:19:57.874Z,7.88
2023-02-03T13:23:14.559Z,8.02
2023-02-03T13:26:31.457Z,7.84
2023-02-03T13:29:48.879Z,7.97
2023-02-03T13:33:06.577Z,7.97
2023-02-03T13:36:18.662Z,7.97
2023-02-03T13:39:36.871Z,8.10
2023-02-03T13:42:47.862Z,8.05
2023-02-03T13:45:53.809Z,8.01
2023-02-03T13:49:01.933Z,7.97
2023-02-03T13:52:44.764Z,8.06
2023-02-03T13:56:03.654Z,8.14
2023-02-03T13:59:15.228Z,8.17
2023-02-03T14:02:31.179Z,8.25
2023-02-03T14:05:43.271Z,8.37
2023-02-03T14:08:52.196Z,8.42
2023-02-03T14:12:15.427Z,8.52
2023-02-03T14:15:28.691Z,8.52
2023-02-03T14:18:44.684Z,8.62
2023-02-03T14:21:55.910Z,8.65
2023-02-03T14:25:06.967Z,8.48
2023-02-03T14:28:23.547Z,8.19
2023-02-03T14:31:29.361Z,8.00
2023-02-03T14:34:42.152Z,8.10
2023-02-03T14:37:57.255Z,7.96
2023-02-03T14:41:06.393Z,7.89
2023-02-03T14:44:24.071Z,7.96
2023-02-03T14:47:35.207Z,7.90
2023-02-03T14:51:07.124Z,8.00
2023-02-03T14:54:16.281Z,7.94
2023-02-03T14:57:27.434Z,7.91
2023-02-03T15:00:35.322Z,7.77
2023-02-03T15:03:42.648Z,7.80
2023-02-03T15:06:51.403Z,7.70
2023-02-03T15:09:57.150Z,7.54
2023-02-03T15:13:03.172Z,7.37
2023-02-03T15:16:16.549Z,7.33
2023-02-03T15:19:26.341Z,7.23
2023-02-03T15:22:38.067Z,6.98
2023-02-03T15:25:44.243Z,6.94
2023-02-03T15:29:04.434Z,6.81
2023-02-03T15:32:17.360Z,6.77
2023-02-03T15:35:26.706Z,6.70
2023-02-03T15:38:56.246Z,6.59
2023-02-03T15:42:05.669Z,6.59
2023-02-03T15:45:31.385Z,6.47
2023-02-03T15:48:48.819Z,6.44
2023-02-03T15:51:54.263Z,6.33
2023-02-03T15:55:21.283Z,6.33
2023-02-03T15:58:30.464Z,6.25
2023-02-03T16:01:36.289Z,6.14
2023-02-03T16:04:41.680Z,6.06
2023-02-03T16:07:47.124Z,6.04
2023-02-03T16:10:52.217Z,6.03
2023-02-03T16:14:00.418Z,5.91
2023-02-03T16:17:07.404Z,5.80
2023-02-03T16:20:12.531Z,5.76
2023-02-03T16:23:24.924Z,5.67
2023-02-03T16:26:32.764Z,5.62
2023-02-03T16:29:57.033Z,5.59
2023-02-03T16:33:29.643Z,5.54
2023-02-03T16:36:59.316Z,5.47
2023-02-03T16:40:23.353Z,5.48
2023-02-03T16:43:46.903Z,5.25
2023-02-03T16:47:10.434Z,5.23
2023-02-03T16:50:39.062Z,4.99
2023-02-03T16:53:48.593Z,4.89
2023-02-03T16:56:58.526Z,4.92
2023-02-03T17:00:06.416Z,4.75
2023-02-03T17:03:14.965Z,4.82
2023-02-03T17:06:20.528Z,4.84
2023-02-03T17:09:25.962Z,4.84
2023-02-03T17:12:33.794Z,4.86
2023-02-03T17:15:52.905Z,4.74
2023-02-03T17:18:58.319Z,4.77
2023-02-03T17:22:03.653Z,4.60
2023-02-03T17:25:09.124Z,4.65
2023-02-03T17:28:14.885Z,4.67
2023-02-03T17:31:21.256Z,4.74
2023-02-03T17:34:26.827Z,4.60
2023-02-03T17:37:37.060Z,4.40
2023-02-03T17:54:14.227Z,4.05
2023-02-03T17:57:19.363Z,4.11
2023-02-03T18:00:24.834Z,4.20
2023-02-03T18:03:30.385Z,4.16
2023-02-03T18:06:36.521Z,3.98
2023-02-03T18:09:41.802Z,4.09
2023-02-03T18:12:47.187Z,3.86
2023-02-03T18:15:52.232Z,3.92
2023-02-03T18:18:57.950Z,3.92
2023-02-03T18:22:03.689Z,3.95
2023-02-03T18:25:10.087Z,3.98
2023-02-03T18:28:16.522Z,3.94
2023-02-03T18:31:22.625Z,4.06
2023-02-03T18:34:28.893Z,3.98
2023-02-03T18:37:34.564Z,3.89
2023-02-03T18:40:39.783Z,4.01
2023-02-03T18:43:47.195Z,4.01
2023-02-03T18:46:53.944Z,3.97
2023-02-03T18:49:59.186Z,4.01
2023-02-03T18:53:04.763Z,4.01
2023-02-03T18:56:14.961Z,4.05
2023-02-03T18:59:20.393Z,3.92
2023-02-03T19:02:26.257Z,3.87
2023-02-03T19:05:31.719Z,3.66
2023-02-03T19:08:37.845Z,3.70
2023-02-03T19:11:43.448Z,3.75
2023-02-03T19:14:48.623Z,3.62
2023-02-03T19:17:56.765Z,3.73
2023-02-03T19:21:02.066Z,3.68
2023-02-03T19:24:07.207Z,3.50
2023-02-03T19:27:12.310Z,3.46
2023-02-03T19:30:17.974Z,3.40
2023-02-03T19:33:24.012Z,3.28
2023-02-03T19:36:30.178Z,3.31
2023-02-03T19:39:36.272Z,3.32
2023-02-03T19:42:41.801Z,3.27
2023-02-03T19:45:47.319Z,3.32
2023-02-03T19:48:53.024Z,3.27
2023-02-03T19:51:58.508Z,3.37
2023-02-03T19:55:04.319Z,3.41
2023-02-03T19:58:09.980Z,3.40
2023-02-03T20:01:15.206Z,3.36
2023-02-03T20:04:20.862Z,3.33
2023-02-03T20:07:28.880Z,3.46
2023-02-03T20:10:34.414Z,3.66
2023-02-03T20:13:42.452Z,3.85
2023-02-03T20:16:51.048Z,3.90
2023-02-03T20:19:56.851Z,3.96
2023-02-03T20:23:02.435Z,4.11
2023-02-03T20:26:07.733Z,4.05
2023-02-03T20:29:13.565Z,4.11
2023-02-03T20:32:19.027Z,3.99
2023-02-03T20:35:25.527Z,4.04
2023-02-03T20:38:30.894Z,3.96
2023-02-03T20:41:36.363Z,4.03
2023-02-03T20:44:42.543Z,3.96
2023-02-03T20:47:48.838Z,3.92
2023-02-03T20:50:54.171Z,3.94
2023-02-03T20:53:59.380Z,3.89
2023-02-03T20:57:11.527Z,3.84
2023-02-03T21:00:21.174Z,3.91
2023-02-03T21:03:45.702Z,3.87
2023-02-03T21:06:51.064Z,3.84
2023-02-03T21:10:00.356Z,3.86
2023-02-03T21:13:30.501Z,3.90
2023-02-03T21:16:39.670Z,3.76
2023-02-03T21:19:45.900Z,3.62
2023-02-03T21:22:51.951Z,3.61
2023-02-03T21:25:57.357Z,3.58
2023-02-03T21:29:02.931Z,3.56
2023-02-03T21:32:14.941Z,3.58
2023-02-03T21:35:30.422Z,3.66
2023-02-03T21:38:35.774Z,3.51
2023-02-03T21:41:41.584Z,3.52
2023-02-03T21:44:46.776Z,3.66
2023-02-03T21:47:53.569Z,3.70
2023-02-03T21:51:21.427Z,3.68
2023-02-03T21:54:33.920Z,3.82
2023-02-03T21:57:39.423Z,3.90
2023-02-03T22:00:48.266Z,4.22
2023-02-03T22:03:55.905Z,4.24
2023-02-03T22:07:01.282Z,4.12
2023-02-03T22:10:07.292Z,4.03
2023-02-03T22:13:13.434Z,3.83
2023-02-03T22:16:19.602Z,3.62
2023-02-03T22:19:25.128Z,3.50
2023-02-03T22:22:32.360Z,3.36
2023-02-03T22:25:38.120Z,3.18
2023-02-03T22:28:44.915Z,3.01
2023-02-03T22:31:50.502Z,2.89
2023-02-03T22:34:56.281Z,3.01
2023-02-03T22:38:02.038Z,2.63
2023-02-03T22:41:12.288Z,2.84
2023-02-03T22:44:18.759Z,2.62
2023-02-03T22:47:24.582Z,2.55
2023-02-03T22:50:35.806Z,2.68
2023-02-03T22:53:42.223Z,2.54
2023-02-03T22:56:47.937Z,2.63
2023-02-03T22:59:53.182Z,2.53
2023-02-03T23:02:59.323Z,2.50
2023-02-03T23:06:05.136Z,2.58
2023-02-03T23:09:10.876Z,2.50
2023-02-03T23:12:16.228Z,2.56
2023-02-03T23:15:21.608Z,2.75
2023-02-03T23:18:27.007Z,2.79
2023-02-03T23:21:32.600Z,2.77
2023-02-03T23:24:38.003Z,2.92
2023-02-03T23:27:43.723Z,3.09
2023-02-03T23:30:49.419Z,3.23
2023-02-03T23:34:13.737Z,3.30
2023-02-03T23:37:19.619Z,3.22
2023-02-03T23:40:25.272Z,3.26
2023-02-03T23:43:31.001Z,3.17
2023-02-03T23:46:36.055Z,3.27
2023-02-03T23:49:41.186Z,3.10
2023-02-03T23:52:47.202Z,3.17
2023-02-03T23:55:52.658Z,3.16
2023-02-03T23:58:58.832Z,3.16
